Tankerton, United Kingdom
Current Conditions -  °F | °C
As of 5:20 PM on Thursday 30 Oct 2014 (Local Time) from EGMC Reporting Station
Few Clouds Few Clouds  
Wind Chill: 61°   Ceiling: Unl
Heat Index: 61°   Visibility: 6mi
Dew Point: 55°   Wind: 5mph
Humidity: 82%   Direction: 140°SE
Pressure: 30.09"   Gusts: NA
Location:  51.36°N, 1.05°E
Report Text: EGMC 301720Z 14004KT 9999 FEW015 16/13 Q1019
Loading
Personal Weather Stations






























Interactive Weather Map
Tropical Storm Tracking
New forecast layout! Learn more

10-Day Weather Forecast

Advertisements
Track Severe Weather on mobile